Buoy 32622

sailwx.info

Track history (hours):
 
Tides and Currents Weather Stations Pressure Air Temp Water Temp Dewpoint Dewpoint Depression Visibility Wind Speed Wind Dir Waves Ship Positions

Aadnyj

Last reported at 2017-Feb-20 03:00 UTC. Time now 2017-Feb-20 06:22 UTC.
Position S 10°49' W 128°13'.

Length 56 m.

Type: Towing. MMSI: 413600286.

Water temperature 29.1 ° C

Date/timePositionNaut miles runAvg speedWind from/ knotsBaromVisibWave heightAir tempDewpointWater temp
2017-Feb-20 03:00S 10°49' W 128°13'0 0.0 29.1
2017-Feb-20 02:00S 10°49' W 128°13'2 1.9 29.1
2017-Feb-20 01:00S 10°49' W 128°11'0 0.0 29.1
2017-Feb-20 00:00S 10°49' W 128°11'1 0.8 29.2
2017-Feb-19 23:00S 10°49' W 128°11'0 0.0 29.2
2017-Feb-19 22:00S 10°49' W 128°11'1 0.3 29.1
2017-Feb-19 18:00S 10°48' W 128°10'0 0.0 28.8
2017-Feb-19 17:00S 10°48' W 128°10'1 0.6 28.8
2017-Feb-19 16:00S 10°49' W 128°10'2 1.9 28.8
2017-Feb-19 15:00S 10°48' W 128°08'2 1.7 28.8
2017-Feb-19 14:00S 10°47' W 128°10'6 5.5 28.8
2017-Feb-19 13:00S 10°41' W 128°08'0 0.0 28.8
2017-Feb-19 11:00S 10°41' W 128°08'0 0.0 28.8
2017-Feb-19 10:00S 10°41' W 128°08'0 0.0 28.8
2017-Feb-19 07:00S 10°41' W 128°08'2 1.9 28.8
2017-Feb-19 06:00S 10°40' W 128°08'0 0.0 28.8
2017-Feb-19 04:00S 10°40' W 128°08'1 0.6 28.7
2017-Feb-19 03:00S 10°39' W 128°08'1 1.3 28.7
2017-Feb-19 02:00S 10°38' W 128°07'2 2.2 28.8
2017-Feb-19 01:00S 10°36' W 128°06'2 1.7 28.8
2017-Feb-19 00:00S 10°35' W 128°05'0 0.0 28.7
2017-Feb-18 23:00S 10°35' W 128°05'0 0.0 28.8
2017-Feb-18 22:00S 10°35' W 128°05'5 1.3 28.7
2017-Feb-18 18:00S 10°31' W 128°02'0 0.0 28.4
2017-Feb-18 17:00S 10°31' W 128°02'3 3.0 28.4
2017-Feb-18 16:00S 10°28' W 128°02'0 0.0 28.4
2017-Feb-18 15:00S 10°28' W 128°02'1 1.3 28.4
2017-Feb-18 14:00S 10°27' W 128°01'3 3.2 28.4
2017-Feb-18 13:00S 10°24' W 127°59'6 3.2 28.4
2017-Feb-18 11:00S 10°19' W 127°55'0 0.0 28.4
2017-Feb-18 10:00S 10°19' W 127°55'1 0.3 28.4
2017-Feb-18 06:00S 10°18' W 127°55'2 1.9 28.4
2017-Feb-18 05:00S 10°17' W 127°53'0 0.0 28.4
2017-Feb-18 04:00S 10°17' W 127°53'3 3.5 28.4
2017-Feb-18 03:00S 10°16' W 127°50'0 0.0 28.4
2017-Feb-18 02:00S 10°16' W 127°50'0 0.0 28.4
2017-Feb-18 01:00S 10°16' W 127°50'1 1.2 28.5
2017-Feb-18 00:00S 10°16' W 127°49'1 1.3 28.5
2017-Feb-17 23:00S 10°15' W 127°48'5 4.8 28.4
2017-Feb-17 22:00S 10°14' W 127°43'0 0.0 28.4
2017-Feb-17 19:00S 10°14' W 127°43'0 0.0 28.3
2017-Feb-17 18:00S 10°14' W 127°43'3 3.0 28.2
2017-Feb-17 17:00S 10°15' W 127°40'0 0.0 28.2
2017-Feb-17 15:00S 10°15' W 127°40'2 1.9 28.2
2017-Feb-17 14:00S 10°14' W 127°38'0 0.0 28.1
2017-Feb-17 13:00S 10°14' W 127°38'0 0.0 28.1
2017-Feb-17 12:00S 10°14' W 127°38'1 1.3 28.2
2017-Feb-17 11:00S 10°14' W 127°37'0 0.0 28.2
2017-Feb-17 10:00S 10°14' W 127°37'0 0.0 28.2
2017-Feb-17 09:00S 10°14' W 127°37'2 0.9 28.2
2017-Feb-17 07:00S 10°14' W 127°35'1 0.6 28.2
2017-Feb-17 06:00S 10°14' W 127°35'1 0.8 28.3
2017-Feb-17 05:00S 10°15' W 127°34'0 0.0 28.3
2017-Feb-17 04:00S 10°15' W 127°34'1 0.6 28.4
2017-Feb-17 03:00S 10°15' W 127°34'1 0.8 28.4
2017-Feb-17 02:00S 10°14' W 127°33'1 0.6 28.5
2017-Feb-17 01:00S 10°14' W 127°32'0 0.0 28.5
2017-Feb-17 00:00S 10°14' W 127°32'1 0.6 28.6
2017-Feb-16 23:00S 10°14' W 127°32'1 0.6 28.6
2017-Feb-16 22:00S 10°14' W 127°31'2 0.5 28.5
2017-Feb-16 18:00S 10°13' W 127°30'1 1.2 28.2
2017-Feb-16 17:00S 10°13' W 127°29'1 0.7 28.1
2017-Feb-16 15:00S 10°13' W 127°30'3 2.5 28.2
2017-Feb-16 14:00S 10°11' W 127°28'0 0.0 28.2
2017-Feb-16 13:00S 10°11' W 127°28'0 0.0 28.2
2017-Feb-16 12:00S 10°11' W 127°28'1 0.8 28.2
2017-Feb-16 11:00S 10°11' W 127°29'0 0.0 28.2
2017-Feb-16 10:00S 10°11' W 127°29'0 0.0 28.2
2017-Feb-16 09:00S 10°11' W 127°29'3 0.8 28.3
2017-Feb-16 06:00S 10°09' W 127°27'1 0.6 28.5
2017-Feb-16 05:00S 10°08' W 127°27'1 0.6 28.5
2017-Feb-16 04:00S 10°08' W 127°27'1 0.8 28.5
2017-Feb-16 03:00S 10°07' W 127°26'1 1.3 28.6
2017-Feb-16 02:00S 10°06' W 127°26'0 0.0 28.7
2017-Feb-16 01:00S 10°06' W 127°26'1 1.3 28.6
2017-Feb-16 00:00S 10°05' W 127°25'0 0.0 28.6
2017-Feb-15 23:00S 10°05' W 127°25'2 0.6 28.5
2017-Feb-15 19:00S 10°02' W 127°25'1 0.8 28.0
2017-Feb-15 18:00S 10°02' W 127°24'1 0.8 27.8
2017-Feb-15 17:00S 10°02' W 127°23'1 0.3 27.8
2017-Feb-15 15:00S 10°02' W 127°24'1 0.6 27.9
2017-Feb-15 14:00S 10°02' W 127°24'0 0.0 28.0
2017-Feb-15 13:00S 10°02' W 127°24'1 0.6 28.1
2017-Feb-15 12:00S 10°02' W 127°23'1 0.8 28.1
2017-Feb-15 11:00S 10°01' W 127°24'0 0.0 27.9
2017-Feb-15 10:00S 10°01' W 127°24'2 0.8 28.4
2017-Feb-15 07:00S 10°01' W 127°22'1 0.6 28.4
2017-Feb-15 06:00S 10°01' W 127°21'0 0.0 28.5
2017-Feb-15 05:00S 10°01' W 127°21'1 1.2 28.5
2017-Feb-15 04:00S 10°01' W 127°20'0 0.0 28.6
2017-Feb-15 03:00S 10°01' W 127°20'2 1.8 28.7
2017-Feb-15 02:00S 10°01' W 127°18'3 2.5 28.8
2017-Feb-15 01:00S 10°03' W 127°20'1 0.8 29.0
2017-Feb-15 00:00S 10°02' W 127°19'0 0.0 29.1
2017-Feb-14 23:00S 10°02' W 127°19'0 0.0 28.7
2017-Feb-14 22:00S 10°02' W 127°19'2 0.6 28.8
2017-Feb-14 18:00S 10°02' W 127°17'1 0.6 28.5
2017-Feb-14 17:00S 10°02' W 127°17'0 0.0 28.4
2017-Feb-14 16:00S 10°02' W 127°17'1 1.3 28.4
2017-Feb-14 15:00S 10°02' W 127°16'2 1.7 28.4
2017-Feb-14 14:00S 10°04' W 127°15'0 0.0 28.4
2017-Feb-14 13:00S 10°04' W 127°15'0 0.0 28.5
2017-Feb-14 12:00S 10°04' W 127°15'1 0.3 28.6
2017-Feb-14 10:00S 10°04' W 127°16'1 0.4 28.7
2017-Feb-14 07:00S 10°05' W 127°15'1 1.3 28.9
2017-Feb-14 06:00S 10°04' W 127°14'0 0.0 29.0
2017-Feb-14 04:00S 10°04' W 127°14'0 0.0 29.2
2017-Feb-14 03:00S 10°04' W 127°14'1 0.8 29.4
2017-Feb-14 02:00S 10°05' W 127°14'1 0.6 29.6
2017-Feb-14 01:00S 10°04' W 127°14'0 0.0 29.6
2017-Feb-14 00:00S 10°04' W 127°14'1 1.3 30.1
2017-Feb-13 23:00S 10°04' W 127°13'1 0.2 29.6
2017-Feb-13 18:00S 10°04' W 127°13'0 0.0 28.3
2017-Feb-13 17:00S 10°04' W 127°13'0 0.0 28.2
2017-Feb-13 16:00S 10°04' W 127°13'1 1.3 28.1
2017-Feb-13 15:00S 10°05' W 127°11'0 0.0 28.1
2017-Feb-13 14:00S 10°05' W 127°11'0 0.0 28.1
2017-Feb-13 13:00S 10°05' W 127°11'0 0.0 28.1
2017-Feb-13 12:00S 10°05' W 127°11'0 0.0 28.2
2017-Feb-13 07:00S 10°05' W 127°11'0 0.0 28.2
2017-Feb-13 06:00S 10°05' W 127°11'0 0.0 28.3
2017-Feb-13 05:00S 10°05' W 127°11'1 0.6 28.3
2017-Feb-13 04:00S 10°05' W 127°11'0 0.0 28.4
2017-Feb-13 03:00S 10°05' W 127°11'1 0.6 28.4
2017-Feb-13 02:00S 10°05' W 127°10'1 0.8 28.5
2017-Feb-13 01:00S 10°04' W 127°10'0 0.0 28.5
2017-Feb-13 00:00S 10°04' W 127°10'1 0.6 28.5
2017-Feb-12 23:00S 10°04' W 127°09'0 0.0 28.5
2017-Feb-12 22:00S 10°04' W 127°09'0 0.0 28.5
2017-Feb-12 19:00S 10°04' W 127°09'0 0.0 28.2
2017-Feb-12 18:00S 10°04' W 127°09'1 0.6 28.1
2017-Feb-12 17:00S 10°04' W 127°10'0 0.0 28.1
2017-Feb-12 16:00S 10°04' W 127°10'2 1.8 28.1
2017-Feb-12 15:00S 10°04' W 127°08'1 1.2 28.1
2017-Feb-12 14:00S 10°04' W 127°09'0 0.0 28.1
2017-Feb-12 13:00S 10°04' W 127°09'0 0.0 28.1
2017-Feb-12 12:00S 10°04' W 127°09'0 0.0 28.1
2017-Feb-12 11:00S 10°04' W 127°09'1 0.2 28.1
2017-Feb-12 06:00S 10°04' W 127°08'1 0.6 28.2
2017-Feb-12 05:00S 10°04' W 127°07'1 0.4 28.2
2017-Feb-12 03:00S 10°04' W 127°07'0 0.0 28.4
2017-Feb-12 02:00S 10°04' W 127°07'1 1.2 28.4
2017-Feb-12 01:00S 10°04' W 127°05'0 0.0 28.5
2017-Feb-12 00:00S 10°04' W 127°05'1 0.6 28.6
2017-Feb-11 23:00S 10°04' W 127°05'0 0.0 28.6
2017-Feb-11 22:00S 10°04' W 127°05'3 0.7 28.5
2017-Feb-11 18:00S 10°02' W 127°02'1 0.8 28.2
2017-Feb-11 17:00S 10°01' W 127°03'0 0.0 28.2
2017-Feb-11 16:00S 10°01' W 127°03'1 1.3 28.1
2017-Feb-11 15:00S 10°01' W 127°02'1 1.2 28.1
2017-Feb-11 14:00S 10°01' W 127°01'7 2.2 28.1
2017-Feb-11 11:00S 10°02' W 126°54'0 0.0 28.2
2017-Feb-11 10:00S 10°02' W 126°54'0 0.0 28.2
2017-Feb-11 06:00S 10°02' W 126°54'1 1.3 28.3
2017-Feb-11 05:00S 10°01' W 126°53'1 0.7 28.3
2017-Feb-11 03:00S 10°02' W 126°52'0 0.0 28.4
2017-Feb-11 02:00S 10°02' W 126°52'2 1.8 28.4
2017-Feb-11 01:00S 10°02' W 126°50'0 0.0 28.5
2017-Feb-11 00:00S 10°02' W 126°50'1 1.3 28.5
2017-Feb-10 23:00S 10°03' W 126°49'0 0.0 28.4
2017-Feb-10 22:00S 10°03' W 126°49'3 1.0 28.4
2017-Feb-10 19:00S 10°03' W 126°46'1 1.3 28.4
2017-Feb-10 18:00S 10°04' W 126°46'0 0.0 28.3
2017-Feb-10 17:00S 10°04' W 126°46'2 1.1 28.3
2017-Feb-10 15:00S 10°05' W 126°44'1 1.3 28.2
2017-Feb-10 14:00S 10°06' W 126°43'2 2.1 28.2
2017-Feb-10 13:00S 10°07' W 126°41'0 0.0 28.3
2017-Feb-10 12:00S 10°07' W 126°41'0 0.0 28.3
2017-Feb-10 11:00S 10°07' W 126°41'0 0.0 28.3
2017-Feb-10 10:00S 10°07' W 126°41'3 3.4 28.3
2017-Feb-10 09:00S 10°10' W 126°38'0 0.0 28.3
2017-Feb-10 07:00S 10°10' W 126°38'0 0.0 28.3
2017-Feb-10 06:00S 10°10' W 126°38'1 1.3 28.4
2017-Feb-10 05:00S 10°10' W 126°37'0 0.0 28.4
2017-Feb-10 04:00S 10°10' W 126°37'1 1.2 28.4
2017-Feb-10 03:00S 10°11' W 126°37'   28.4
Track history (hours):
 
Tides and Currents Weather Stations Pressure Air Temp Water Temp Dewpoint Dewpoint Depression Visibility Wind Speed Wind Dir Waves Ship Positions

Aadnyj

Last reported at 2017-Feb-20 03:00 UTC. Time now 2017-Feb-20 06:22 UTC.
Position S 10°49' W 128°13'.

Length 56 m.

Type: Towing. MMSI: 413600286.

Water temperature 29.1 ° C

Date/timePositionNaut miles runAvg speedWind from/ knotsBaromVisibWave heightAir tempDewpointWater temp
2017-Feb-20 03:00S 10°49' W 128°13'0 0.0 29.1
2017-Feb-20 02:00S 10°49' W 128°13'2 1.9 29.1
2017-Feb-20 01:00S 10°49' W 128°11'0 0.0 29.1
2017-Feb-20 00:00S 10°49' W 128°11'1 0.8 29.2
2017-Feb-19 23:00S 10°49' W 128°11'0 0.0 29.2
2017-Feb-19 22:00S 10°49' W 128°11'1 0.3 29.1
2017-Feb-19 18:00S 10°48' W 128°10'0 0.0 28.8
2017-Feb-19 17:00S 10°48' W 128°10'1 0.6 28.8
2017-Feb-19 16:00S 10°49' W 128°10'2 1.9 28.8
2017-Feb-19 15:00S 10°48' W 128°08'2 1.7 28.8
2017-Feb-19 14:00S 10°47' W 128°10'6 5.5 28.8
2017-Feb-19 13:00S 10°41' W 128°08'0 0.0 28.8
2017-Feb-19 11:00S 10°41' W 128°08'0 0.0 28.8
2017-Feb-19 10:00S 10°41' W 128°08'0 0.0 28.8
2017-Feb-19 07:00S 10°41' W 128°08'2 1.9 28.8
2017-Feb-19 06:00S 10°40' W 128°08'0 0.0 28.8
2017-Feb-19 04:00S 10°40' W 128°08'1 0.6 28.7
2017-Feb-19 03:00S 10°39' W 128°08'1 1.3 28.7
2017-Feb-19 02:00S 10°38' W 128°07'2 2.2 28.8
2017-Feb-19 01:00S 10°36' W 128°06'2 1.7 28.8
2017-Feb-19 00:00S 10°35' W 128°05'0 0.0 28.7
2017-Feb-18 23:00S 10°35' W 128°05'0 0.0 28.8
2017-Feb-18 22:00S 10°35' W 128°05'5 1.3 28.7
2017-Feb-18 18:00S 10°31' W 128°02'0 0.0 28.4
2017-Feb-18 17:00S 10°31' W 128°02'3 3.0 28.4
2017-Feb-18 16:00S 10°28' W 128°02'0 0.0 28.4
2017-Feb-18 15:00S 10°28' W 128°02'1 1.3 28.4
2017-Feb-18 14:00S 10°27' W 128°01'3 3.2 28.4
2017-Feb-18 13:00S 10°24' W 127°59'6 3.2 28.4
2017-Feb-18 11:00S 10°19' W 127°55'0 0.0 28.4
2017-Feb-18 10:00S 10°19' W 127°55'1 0.3 28.4
2017-Feb-18 06:00S 10°18' W 127°55'2 1.9 28.4
2017-Feb-18 05:00S 10°17' W 127°53'0 0.0 28.4
2017-Feb-18 04:00S 10°17' W 127°53'3 3.5 28.4
2017-Feb-18 03:00S 10°16' W 127°50'0 0.0 28.4
2017-Feb-18 02:00S 10°16' W 127°50'0 0.0 28.4
2017-Feb-18 01:00S 10°16' W 127°50'1 1.2 28.5
2017-Feb-18 00:00S 10°16' W 127°49'1 1.3 28.5
2017-Feb-17 23:00S 10°15' W 127°48'5 4.8 28.4
2017-Feb-17 22:00S 10°14' W 127°43'0 0.0 28.4
2017-Feb-17 19:00S 10°14' W 127°43'0 0.0 28.3
2017-Feb-17 18:00S 10°14' W 127°43'3 3.0 28.2
2017-Feb-17 17:00S 10°15' W 127°40'0 0.0 28.2
2017-Feb-17 15:00S 10°15' W 127°40'2 1.9 28.2
2017-Feb-17 14:00S 10°14' W 127°38'0 0.0 28.1
2017-Feb-17 13:00S 10°14' W 127°38'0 0.0 28.1
2017-Feb-17 12:00S 10°14' W 127°38'1 1.3 28.2
2017-Feb-17 11:00S 10°14' W 127°37'0 0.0 28.2
2017-Feb-17 10:00S 10°14' W 127°37'0 0.0 28.2
2017-Feb-17 09:00S 10°14' W 127°37'2 0.9 28.2
2017-Feb-17 07:00S 10°14' W 127°35'1 0.6 28.2
2017-Feb-17 06:00S 10°14' W 127°35'1 0.8 28.3
2017-Feb-17 05:00S 10°15' W 127°34'0 0.0 28.3
2017-Feb-17 04:00S 10°15' W 127°34'1 0.6 28.4
2017-Feb-17 03:00S 10°15' W 127°34'1 0.8 28.4
2017-Feb-17 02:00S 10°14' W 127°33'1 0.6 28.5
2017-Feb-17 01:00S 10°14' W 127°32'0 0.0 28.5
2017-Feb-17 00:00S 10°14' W 127°32'1 0.6 28.6
2017-Feb-16 23:00S 10°14' W 127°32'1 0.6 28.6
2017-Feb-16 22:00S 10°14' W 127°31'2 0.5 28.5
2017-Feb-16 18:00S 10°13' W 127°30'1 1.2 28.2
2017-Feb-16 17:00S 10°13' W 127°29'1 0.7 28.1
2017-Feb-16 15:00S 10°13' W 127°30'3 2.5 28.2
2017-Feb-16 14:00S 10°11' W 127°28'0 0.0 28.2
2017-Feb-16 13:00S 10°11' W 127°28'0 0.0 28.2
2017-Feb-16 12:00S 10°11' W 127°28'1 0.8 28.2
2017-Feb-16 11:00S 10°11' W 127°29'0 0.0 28.2
2017-Feb-16 10:00S 10°11' W 127°29'0 0.0 28.2
2017-Feb-16 09:00S 10°11' W 127°29'3 0.8 28.3
2017-Feb-16 06:00S 10°09' W 127°27'1 0.6 28.5
2017-Feb-16 05:00S 10°08' W 127°27'1 0.6 28.5
2017-Feb-16 04:00S 10°08' W 127°27'1 0.8 28.5
2017-Feb-16 03:00S 10°07' W 127°26'1 1.3 28.6
2017-Feb-16 02:00S 10°06' W 127°26'0 0.0 28.7
2017-Feb-16 01:00S 10°06' W 127°26'1 1.3 28.6
2017-Feb-16 00:00S 10°05' W 127°25'0 0.0 28.6
2017-Feb-15 23:00S 10°05' W 127°25'2 0.6 28.5
2017-Feb-15 19:00S 10°02' W 127°25'1 0.8 28.0
2017-Feb-15 18:00S 10°02' W 127°24'1 0.8 27.8
2017-Feb-15 17:00S 10°02' W 127°23'1 0.3 27.8
2017-Feb-15 15:00S 10°02' W 127°24'1 0.6 27.9
2017-Feb-15 14:00S 10°02' W 127°24'0 0.0 28.0
2017-Feb-15 13:00S 10°02' W 127°24'1 0.6 28.1
2017-Feb-15 12:00S 10°02' W 127°23'1 0.8 28.1
2017-Feb-15 11:00S 10°01' W 127°24'0 0.0 27.9
2017-Feb-15 10:00S 10°01' W 127°24'2 0.8 28.4
2017-Feb-15 07:00S 10°01' W 127°22'1 0.6 28.4
2017-Feb-15 06:00S 10°01' W 127°21'0 0.0 28.5
2017-Feb-15 05:00S 10°01' W 127°21'1 1.2 28.5
2017-Feb-15 04:00S 10°01' W 127°20'0 0.0 28.6
2017-Feb-15 03:00S 10°01' W 127°20'2 1.8 28.7
2017-Feb-15 02:00S 10°01' W 127°18'3 2.5 28.8
2017-Feb-15 01:00S 10°03' W 127°20'1 0.8 29.0
2017-Feb-15 00:00S 10°02' W 127°19'0 0.0 29.1
2017-Feb-14 23:00S 10°02' W 127°19'0 0.0 28.7
2017-Feb-14 22:00S 10°02' W 127°19'2 0.6 28.8
2017-Feb-14 18:00S 10°02' W 127°17'1 0.6 28.5
2017-Feb-14 17:00S 10°02' W 127°17'0 0.0 28.4
2017-Feb-14 16:00S 10°02' W 127°17'1 1.3 28.4
2017-Feb-14 15:00S 10°02' W 127°16'2 1.7 28.4
2017-Feb-14 14:00S 10°04' W 127°15'0 0.0 28.4
2017-Feb-14 13:00S 10°04' W 127°15'0 0.0 28.5
2017-Feb-14 12:00S 10°04' W 127°15'1 0.3 28.6
2017-Feb-14 10:00S 10°04' W 127°16'1 0.4 28.7
2017-Feb-14 07:00S 10°05' W 127°15'1 1.3 28.9
2017-Feb-14 06:00S 10°04' W 127°14'0 0.0 29.0
2017-Feb-14 04:00S 10°04' W 127°14'0 0.0 29.2
2017-Feb-14 03:00S 10°04' W 127°14'1 0.8 29.4
2017-Feb-14 02:00S 10°05' W 127°14'1 0.6 29.6
2017-Feb-14 01:00S 10°04' W 127°14'0 0.0 29.6
2017-Feb-14 00:00S 10°04' W 127°14'1 1.3 30.1
2017-Feb-13 23:00S 10°04' W 127°13'1 0.2 29.6
2017-Feb-13 18:00S 10°04' W 127°13'0 0.0 28.3
2017-Feb-13 17:00S 10°04' W 127°13'0 0.0 28.2
2017-Feb-13 16:00S 10°04' W 127°13'1 1.3 28.1
2017-Feb-13 15:00S 10°05' W 127°11'0 0.0 28.1
2017-Feb-13 14:00S 10°05' W 127°11'0 0.0 28.1
2017-Feb-13 13:00S 10°05' W 127°11'0 0.0 28.1
2017-Feb-13 12:00S 10°05' W 127°11'0 0.0 28.2
2017-Feb-13 07:00S 10°05' W 127°11'0 0.0 28.2
2017-Feb-13 06:00S 10°05' W 127°11'0 0.0 28.3
2017-Feb-13 05:00S 10°05' W 127°11'1 0.6 28.3
2017-Feb-13 04:00S 10°05' W 127°11'0 0.0 28.4
2017-Feb-13 03:00S 10°05' W 127°11'1 0.6 28.4
2017-Feb-13 02:00S 10°05' W 127°10'1 0.8 28.5
2017-Feb-13 01:00S 10°04' W 127°10'0 0.0 28.5
2017-Feb-13 00:00S 10°04' W 127°10'1 0.6 28.5
2017-Feb-12 23:00S 10°04' W 127°09'0 0.0 28.5
2017-Feb-12 22:00S 10°04' W 127°09'0 0.0 28.5
2017-Feb-12 19:00S 10°04' W 127°09'0 0.0 28.2
2017-Feb-12 18:00S 10°04' W 127°09'1 0.6 28.1
2017-Feb-12 17:00S 10°04' W 127°10'0 0.0 28.1
2017-Feb-12 16:00S 10°04' W 127°10'2 1.8 28.1
2017-Feb-12 15:00S 10°04' W 127°08'1 1.2 28.1
2017-Feb-12 14:00S 10°04' W 127°09'0 0.0 28.1
2017-Feb-12 13:00S 10°04' W 127°09'0 0.0 28.1
2017-Feb-12 12:00S 10°04' W 127°09'0 0.0 28.1
2017-Feb-12 11:00S 10°04' W 127°09'1 0.2 28.1
2017-Feb-12 06:00S 10°04' W 127°08'1 0.6 28.2
2017-Feb-12 05:00S 10°04' W 127°07'1 0.4 28.2
2017-Feb-12 03:00S 10°04' W 127°07'0 0.0 28.4
2017-Feb-12 02:00S 10°04' W 127°07'1 1.2 28.4
2017-Feb-12 01:00S 10°04' W 127°05'0 0.0 28.5
2017-Feb-12 00:00S 10°04' W 127°05'1 0.6 28.6
2017-Feb-11 23:00S 10°04' W 127°05'0 0.0 28.6
2017-Feb-11 22:00S 10°04' W 127°05'3 0.7 28.5
2017-Feb-11 18:00S 10°02' W 127°02'1 0.8 28.2
2017-Feb-11 17:00S 10°01' W 127°03'0 0.0 28.2
2017-Feb-11 16:00S 10°01' W 127°03'1 1.3 28.1
2017-Feb-11 15:00S 10°01' W 127°02'1 1.2 28.1
2017-Feb-11 14:00S 10°01' W 127°01'7 2.2 28.1
2017-Feb-11 11:00S 10°02' W 126°54'0 0.0 28.2
2017-Feb-11 10:00S 10°02' W 126°54'0 0.0 28.2
2017-Feb-11 06:00S 10°02' W 126°54'1 1.3 28.3
2017-Feb-11 05:00S 10°01' W 126°53'1 0.7 28.3
2017-Feb-11 03:00S 10°02' W 126°52'0 0.0 28.4
2017-Feb-11 02:00S 10°02' W 126°52'2 1.8 28.4
2017-Feb-11 01:00S 10°02' W 126°50'0 0.0 28.5
2017-Feb-11 00:00S 10°02' W 126°50'1 1.3 28.5
2017-Feb-10 23:00S 10°03' W 126°49'0 0.0 28.4
2017-Feb-10 22:00S 10°03' W 126°49'3 1.0 28.4
2017-Feb-10 19:00S 10°03' W 126°46'1 1.3 28.4
2017-Feb-10 18:00S 10°04' W 126°46'0 0.0 28.3
2017-Feb-10 17:00S 10°04' W 126°46'2 1.1 28.3
2017-Feb-10 15:00S 10°05' W 126°44'1 1.3 28.2
2017-Feb-10 14:00S 10°06' W 126°43'2 2.1 28.2
2017-Feb-10 13:00S 10°07' W 126°41'0 0.0 28.3
2017-Feb-10 12:00S 10°07' W 126°41'0 0.0 28.3
2017-Feb-10 11:00S 10°07' W 126°41'0 0.0 28.3
2017-Feb-10 10:00S 10°07' W 126°41'3 3.4 28.3
2017-Feb-10 09:00S 10°10' W 126°38'0 0.0 28.3
2017-Feb-10 07:00S 10°10' W 126°38'0 0.0 28.3
2017-Feb-10 06:00S 10°10' W 126°38'1 1.3 28.4
2017-Feb-10 05:00S 10°10' W 126°37'0 0.0 28.4
2017-Feb-10 04:00S 10°10' W 126°37'1 1.2 28.4
2017-Feb-10 03:00S 10°11' W 126°37'   28.4

Dump ship's entire track history